Time;durP1;ratioP1;P1;durP2;ratioP2;P2;SDS_P1;SDS_P2;PMS_P1;PMS_P2;Temp;Humidity;BMP_temperature;BMP_pressure;BME280_temperature;BME280_humidity;BME280_pressure;Samples;Min_cycle;Max_cycle;Signal;HPM_P1;HPM_P2
2023/07/21 00:00:00;;;;;;;2.60;1.70;;;16.20;93.50;;;;;;5033500;28;20442;-60
2023/07/21 00:02:28;;;;;;;3.07;2.00;;;16.20;93.50;;;;;;5033588;28;20481;-59
2023/07/21 00:04:55;;;;;;;3.37;2.23;;;16.20;93.40;;;;;;5033523;28;20779;-61
2023/07/21 00:07:24;;;;;;;2.80;2.00;;;16.20;93.40;;;;;;5033036;28;20923;-61
2023/07/21 00:09:51;;;;;;;3.17;2.00;;;16.20;93.30;;;;;;5032910;28;20446;-60
2023/07/21 00:12:18;;;;;;;2.30;1.67;;;16.20;93.20;;;;;;5033417;28;20442;-60
2023/07/21 00:14:45;;;;;;;2.73;1.90;;;16.20;93.20;;;;;;5033195;28;20449;-60
2023/07/21 00:17:12;;;;;;;2.40;1.80;;;16.20;93.00;;;;;;5033774;28;20954;-61
2023/07/21 00:19:41;;;;;;;1.73;1.63;;;16.20;93.00;;;;;;5033356;28;20455;-58
2023/07/21 00:22:08;;;;;;;3.33;1.77;;;16.20;93.00;;;;;;5033227;28;20489;-59
2023/07/21 00:24:35;;;;;;;2.53;1.93;;;16.20;92.90;;;;;;5033215;28;20504;-60
2023/07/21 00:27:02;;;;;;;3.07;1.87;;;16.20;92.80;;;;;;5033861;28;20452;-59
2023/07/21 00:29:29;;;;;;;2.77;1.57;;;16.20;92.80;;;;;;5036924;28;20847;-59
2023/07/21 00:31:56;;;;;;;2.37;1.83;;;16.20;92.80;;;;;;5036998;28;20857;-60
2023/07/21 00:34:24;;;;;;;2.43;1.70;;;16.20;92.70;;;;;;5036945;28;20442;-59
2023/07/21 00:36:56;;;;;;;4.40;1.53;;;16.20;92.70;;;;;;5036892;28;20536;-60
2023/07/21 00:39:23;;;;;;;2.17;1.40;;;16.20;92.70;;;;;;5036771;28;20431;-61
2023/07/21 00:41:51;;;;;;;2.80;1.57;;;16.20;92.60;;;;;;5036935;28;20449;-60
2023/07/21 00:44:17;;;;;;;7.03;1.87;;;16.10;92.60;;;;;;5036980;28;20460;-60
2023/07/21 00:46:44;;;;;;;2.40;2.20;;;16.10;92.60;;;;;;5037064;28;20466;-58
2023/07/21 00:49:11;;;;;;;3.10;2.60;;;16.20;92.50;;;;;;5036693;28;20449;-59
2023/07/21 00:51:39;;;;;;;3.70;2.50;;;16.20;92.40;;;;;;5036805;28;20446;-59
2023/07/21 00:54:07;;;;;;;5.83;2.97;;;16.20;92.30;;;;;;5036689;28;21012;-59
2023/07/21 00:56:34;;;;;;;6.90;6.20;;;16.20;92.30;;;;;;5036298;28;20481;-60
2023/07/21 00:59:01;;;;;;;20.87;17.03;;;16.20;92.30;;;;;;5036559;28;20451;-59
2023/07/21 01:01:28;;;;;;;33.30;30.27;;;16.20;92.50;;;;;;5036523;28;20443;-60
2023/07/21 01:03:55;;;;;;;44.17;39.87;;;16.10;93.00;;;;;;5036891;28;20450;-61
2023/07/21 01:06:26;;;;;;;34.50;31.10;;;16.10;93.50;;;;;;5036103;28;20544;-60
2023/07/21 01:08:54;;;;;;;26.07;23.60;;;16.00;94.00;;;;;;5036540;28;20435;-61
2023/07/21 01:11:22;;;;;;;25.03;22.53;;;16.00;94.50;;;;;;5036555;28;20450;-61
2023/07/21 01:13:53;;;;;;;20.77;18.67;;;15.90;95.00;;;;;;5036210;28;20442;-60
2023/07/21 01:16:21;;;;;;;21.53;19.30;;;15.90;95.50;;;;;;5035635;28;20469;-59
2023/07/21 01:18:50;;;;;;;9.03;8.00;;;15.90;95.90;;;;;;5036024;28;20456;-60
2023/07/21 01:21:40;;;;;;;5.70;5.20;;;15.90;96.20;;;;;;5036202;28;20514;-60
2023/07/21 01:24:14;;;;;;;3.90;3.60;;;15.90;96.40;;;;;;5036819;28;20437;-60
2023/07/21 01:26:44;;;;;;;2.80;2.43;;;15.90;96.70;;;;;;5074763;22;20491;-56
2023/07/21 01:29:11;;;;;;;3.50;2.20;;;15.90;97.10;;;;;;5055971;28;20448;-57
2023/07/21 01:31:40;;;;;;;2.70;1.73;;;15.90;97.60;;;;;;5055903;28;20457;-56
2023/07/21 01:34:09;;;;;;;3.47;2.00;;;15.80;98.10;;;;;;5055837;28;20448;-57
2023/07/21 01:36:37;;;;;;;5.43;2.10;;;15.70;98.70;;;;;;5056074;28;20469;-57
2023/07/21 01:39:06;;;;;;;2.40;2.20;;;15.50;99.60;;;;;;5055050;28;20457;-57
2023/07/21 01:41:34;;;;;;;2.77;2.30;;;15.50;99.90;;;;;;5055715;28;20814;-56
2023/07/21 01:44:03;;;;;;;4.23;2.87;;;15.40;99.90;;;;;;5055507;28;20502;-56
2023/07/21 01:46:31;;;;;;;8.23;2.20;;;15.40;99.90;;;;;;5055454;28;20468;-56
2023/07/21 01:48:58;;;;;;;2.40;2.20;;;15.40;99.90;;;;;;5055500;28;20876;-56
2023/07/21 01:51:26;;;;;;;2.40;2.13;;;15.40;99.90;;;;;;5055693;28;20476;-57
2023/07/21 01:53:58;;;;;;;2.60;2.20;;;15.40;99.90;;;;;;5055507;28;20449;-56
2023/07/21 01:56:31;;;;;;;3.07;2.13;;;15.40;99.90;;;;;;5055527;28;20472;-57
2023/07/21 01:59:05;;;;;;;3.23;2.50;;;15.40;99.90;;;;;;5055502;28;20430;-56
2023/07/21 02:01:33;;;;;;;5.17;2.47;;;15.30;99.90;;;;;;5055154;28;20471;-56
2023/07/21 02:04:01;;;;;;;4.60;2.17;;;15.30;99.90;;;;;;5055195;28;20448;-56
2023/07/21 02:06:27;;;;;;;3.00;2.50;;;15.30;99.90;;;;;;5055258;28;20817;-57
2023/07/21 02:08:54;;;;;;;3.23;2.40;;;15.20;99.90;;;;;;5055279;28;20455;-57
2023/07/21 02:11:21;;;;;;;4.03;2.73;;;15.20;99.90;;;;;;5055355;28;20444;-55
2023/07/21 02:13:48;;;;;;;4.90;2.53;;;15.10;99.90;;;;;;5054857;28;20441;-56
2023/07/21 02:16:17;;;;;;;3.67;3.20;;;15.00;99.90;;;;;;5055340;28;20472;-56
2023/07/21 02:18:43;;;;;;;4.27;2.80;;;15.00;99.90;;;;;;5055084;28;20481;-56
2023/07/21 02:21:10;;;;;;;3.50;3.17;;;14.80;99.90;;;;;;5054926;28;20448;-57
2023/07/21 02:23:37;;;;;;;5.40;3.47;;;14.70;99.90;;;;;;5055118;28;20547;-55
2023/07/21 02:26:04;;;;;;;4.90;3.83;;;14.60;99.90;;;;;;5055472;28;20830;-56
2023/07/21 02:28:31;;;;;;;6.70;3.97;;;14.50;99.90;;;;;;5055251;28;20440;-56
2023/07/21 02:30:59;;;;;;;7.40;4.57;;;14.40;99.90;;;;;;5054637;28;20454;-56
2023/07/21 02:33:27;;;;;;;4.87;3.97;;;14.30;99.90;;;;;;5054867;28;20452;-56
2023/07/21 02:35:54;;;;;;;8.00;4.60;;;14.20;99.90;;;;;;5055068;28;20540;-56
2023/07/21 02:38:20;;;;;;;7.80;4.30;;;14.10;99.90;;;;;;5054742;28;20480;-56
2023/07/21 02:40:47;;;;;;;7.10;4.43;;;14.10;99.90;;;;;;5054926;28;20470;-56
2023/07/21 02:43:15;;;;;;;6.93;4.50;;;14.20;99.90;;;;;;5054711;28;20447;-55
2023/07/21 02:45:48;;;;;;;5.50;4.27;;;14.10;99.90;;;;;;5054727;28;20468;-56
2023/07/21 02:48:16;;;;;;;7.30;4.60;;;14.10;99.90;;;;;;5054791;28;20432;-56
2023/07/21 02:50:47;;;;;;;3.90;3.50;;;14.10;99.90;;;;;;5053520;28;20448;-56
2023/07/21 02:53:14;;;;;;;4.70;4.00;;;14.10;99.90;;;;;;5054496;28;20437;-56
2023/07/21 02:55:41;;;;;;;5.20;3.70;;;14.10;99.90;;;;;;5054343;28;20482;-57
2023/07/21 02:58:08;;;;;;;4.70;4.03;;;14.00;99.90;;;;;;5054643;28;20483;-56
2023/07/21 03:00:35;;;;;;;4.50;3.23;;;14.00;99.90;;;;;;5054739;28;20462;-57
2023/07/21 03:03:03;;;;;;;4.53;3.93;;;13.90;99.90;;;;;;5054837;28;20440;-56
2023/07/21 03:05:30;;;;;;;6.30;3.87;;;13.90;99.90;;;;;;5054628;28;20476;-55
2023/07/21 03:07:58;;;;;;;17.00;4.97;;;13.90;99.90;;;;;;5054533;28;20448;-55
2023/07/21 03:10:25;;;;;;;8.27;4.30;;;13.90;99.90;;;;;;5054706;28;20448;-55
2023/07/21 03:12:52;;;;;;;7.93;3.97;;;13.80;99.90;;;;;;5054041;28;20456;-56
2023/07/21 03:15:19;;;;;;;5.40;4.00;;;13.80;99.90;;;;;;5055066;28;20467;-54
2023/07/21 03:17:46;;;;;;;4.87;3.37;;;13.80;99.90;;;;;;5055124;28;20578;-56
2023/07/21 03:20:15;;;;;;;3.87;3.47;;;13.80;99.90;;;;;;5056007;28;20478;-55
2023/07/21 03:22:42;;;;;;;5.93;3.70;;;13.80;99.90;;;;;;5055649;28;20454;-54
2023/07/21 03:25:11;;;;;;;4.50;4.10;;;13.70;99.90;;;;;;5054490;28;20469;-56
2023/07/21 03:27:38;;;;;;;6.03;3.90;;;13.70;99.90;;;;;;5055868;28;20478;-55
2023/07/21 03:30:06;;;;;;;6.80;3.53;;;13.80;99.90;;;;;;5054548;28;20538;-56
2023/07/21 03:32:33;;;;;;;4.50;3.53;;;13.80;99.90;;;;;;5053283;28;20452;-55
2023/07/21 03:35:01;;;;;;;5.73;4.23;;;13.80;99.90;;;;;;5053969;28;20459;-56
2023/07/21 03:37:28;;;;;;;5.07;3.80;;;13.80;99.90;;;;;;5053481;28;20487;-56
2023/07/21 03:39:55;;;;;;;15.80;4.43;;;13.80;99.90;;;;;;5053366;28;20883;-55
2023/07/21 03:42:24;;;;;;;9.20;4.57;;;13.80;99.90;;;;;;5053471;28;20456;-56
2023/07/21 03:44:51;;;;;;;4.40;3.57;;;13.70;99.90;;;;;;5053441;28;20439;-56
2023/07/21 03:47:19;;;;;;;4.43;3.50;;;13.70;99.90;;;;;;5053091;28;20476;-54
2023/07/21 03:49:46;;;;;;;4.60;4.23;;;13.70;99.90;;;;;;5053336;28;20854;-57
2023/07/21 03:52:13;;;;;;;5.53;3.70;;;13.70;99.90;;;;;;5052918;28;20451;-56
2023/07/21 03:54:41;;;;;;;5.97;4.00;;;13.70;99.90;;;;;;5053045;28;20975;-57
2023/07/21 03:57:08;;;;;;;5.80;4.40;;;13.70;99.90;;;;;;5052976;28;20463;-57
2023/07/21 03:59:37;;;;;;;4.40;4.00;;;13.70;99.90;;;;;;5053074;28;20445;-56
2023/07/21 04:02:04;;;;;;;4.30;3.90;;;13.80;99.90;;;;;;5052579;28;20549;-56
2023/07/21 04:04:32;;;;;;;8.90;4.40;;;13.80;99.90;;;;;;5052974;28;20451;-54
2023/07/21 04:07:01;;;;;;;4.57;3.90;;;13.80;99.90;;;;;;5053219;28;20487;-56
2023/07/21 04:11:59;;;;;;;6.33;4.37;;;13.90;99.90;;;;;;5152163;27;20559;-55
2023/07/21 04:14:26;;;;;;;7.80;4.30;;;13.90;99.90;;;;;;5152049;27;20443;-57
2023/07/21 04:16:53;;;;;;;5.73;4.80;;;14.00;99.90;;;;;;5151941;27;20516;-55
2023/07/21 04:19:20;;;;;;;5.63;4.63;;;14.00;99.90;;;;;;5151919;27;20443;-55
2023/07/21 04:21:48;;;;;;;7.70;4.60;;;14.00;99.90;;;;;;5151673;27;20949;-56
2023/07/21 04:24:15;;;;;;;6.07;3.97;;;14.10;99.90;;;;;;5151926;27;20944;-57
2023/07/21 04:26:41;;;;;;;5.90;4.40;;;14.10;99.90;;;;;;5151624;27;20985;-56
2023/07/21 04:29:10;;;;;;;4.77;3.80;;;14.20;99.90;;;;;;5151751;27;20811;-56
2023/07/21 04:31:36;;;;;;;4.43;3.60;;;14.20;99.90;;;;;;5151864;27;20482;-57
2023/07/21 04:34:03;;;;;;;5.17;3.70;;;14.30;99.90;;;;;;5151879;27;20447;-56
2023/07/21 04:36:30;;;;;;;5.80;3.00;;;14.30;99.90;;;;;;5151890;27;20469;-57
2023/07/21 04:38:57;;;;;;;7.00;3.93;;;14.30;99.90;;;;;;5151898;27;20450;-56
2023/07/21 04:41:25;;;;;;;6.00;4.03;;;14.30;99.90;;;;;;5151761;27;20443;-56
2023/07/21 04:43:51;;;;;;;8.40;4.33;;;14.40;99.90;;;;;;5151740;27;20487;-55
2023/07/21 04:46:19;;;;;;;8.23;4.40;;;14.40;99.90;;;;;;5151673;27;20460;-55
2023/07/21 04:48:46;;;;;;;7.53;4.37;;;14.40;99.90;;;;;;5151937;27;20447;-56
2023/07/21 04:51:13;;;;;;;5.77;3.40;;;14.50;99.90;;;;;;5151754;27;20479;-56
2023/07/21 04:53:42;;;;;;;4.30;3.90;;;14.60;99.90;;;;;;5152118;27;20447;-56
2023/07/21 04:56:09;;;;;;;5.23;3.80;;;14.70;99.90;;;;;;5151861;27;20477;-56
2023/07/21 04:58:35;;;;;;;6.73;3.63;;;14.80;99.90;;;;;;5151699;27;20473;-56
2023/07/21 05:01:02;;;;;;;9.53;4.17;;;15.00;99.90;;;;;;5151539;27;20458;-58
2023/07/21 05:03:30;;;;;;;4.87;3.50;;;15.40;99.90;;;;;;5152399;27;20440;-58
2023/07/21 05:05:57;;;;;;;7.13;3.67;;;15.60;99.90;;;;;;5153256;27;20461;-58
2023/07/21 05:08:25;;;;;;;4.03;3.50;;;15.90;99.90;;;;;;5152708;27;20448;-58
2023/07/21 05:10:54;;;;;;;4.33;3.40;;;16.10;99.90;;;;;;5153678;27;20925;-57
2023/07/21 05:13:21;;;;;;;4.00;3.17;;;16.30;99.90;;;;;;5152406;27;20450;-57
2023/07/21 05:15:49;;;;;;;5.00;3.67;;;16.40;99.90;;;;;;5152055;27;20470;-57
2023/07/21 05:18:15;;;;;;;4.20;3.20;;;16.50;99.90;;;;;;5155057;27;20495;-57
2023/07/21 05:20:44;;;;;;;4.33;3.70;;;16.70;99.90;;;;;;5157520;27;20445;-58
2023/07/21 05:23:11;;;;;;;3.00;2.70;;;16.90;99.90;;;;;;5140852;27;20478;-56
2023/07/21 05:25:38;;;;;;;5.70;3.67;;;17.00;99.90;;;;;;5138449;27;20479;-56
2023/07/21 05:28:05;;;;;;;5.60;2.97;;;17.00;99.90;;;;;;5138552;27;20469;-58
2023/07/21 05:30:32;;;;;;;3.40;3.10;;;16.90;99.90;;;;;;5138982;27;20480;-56
2023/07/21 05:32:58;;;;;;;4.63;3.20;;;16.90;99.90;;;;;;5138374;27;20448;-57
2023/07/21 05:35:26;;;;;;;6.20;3.30;;;16.80;99.90;;;;;;5137691;27;20469;-55
2023/07/21 05:37:55;;;;;;;3.80;2.77;;;16.80;99.90;;;;;;5137090;27;20534;-55
2023/07/21 05:40:21;;;;;;;4.00;3.00;;;16.80;99.90;;;;;;5143097;27;20438;-56
2023/07/21 05:42:48;;;;;;;4.40;3.03;;;16.80;99.90;;;;;;5136634;27;20521;-56
2023/07/21 05:45:15;;;;;;;3.80;3.27;;;16.80;99.90;;;;;;5136975;27;20537;-56
2023/07/21 05:47:42;;;;;;;2.87;2.60;;;16.80;99.90;;;;;;5138579;27;20522;-57
2023/07/21 05:50:09;;;;;;;7.07;3.93;;;16.70;99.90;;;;;;5139977;27;20456;-57
2023/07/21 05:52:36;;;;;;;4.27;3.07;;;16.70;99.90;;;;;;5148607;27;20442;-58
2023/07/21 05:55:05;;;;;;;6.80;3.60;;;16.60;99.90;;;;;;5150560;27;20435;-58
2023/07/21 05:57:33;;;;;;;3.10;2.60;;;16.50;99.90;;;;;;5149471;27;20438;-57
2023/07/21 06:00:00;;;;;;;4.40;2.83;;;16.40;99.90;;;;;;5150187;27;20442;-57
2023/07/21 06:02:26;;;;;;;3.87;3.07;;;16.40;99.90;;;;;;5138860;27;20439;-57
2023/07/21 06:04:57;;;;;;;4.70;3.20;;;16.40;99.90;;;;;;5137491;27;20453;-57
2023/07/21 06:07:24;;;;;;;3.57;3.00;;;16.40;99.90;;;;;;5136914;27;20467;-56
2023/07/21 06:09:51;;;;;;;3.10;2.60;;;16.50;99.90;;;;;;5136741;27;20458;-56
2023/07/21 06:12:19;;;;;;;4.30;2.77;;;16.60;99.90;;;;;;5137198;27;20461;-56
2023/07/21 06:14:46;;;;;;;5.20;3.20;;;16.70;99.90;;;;;;5136666;27;20447;-57
2023/07/21 06:17:13;;;;;;;4.10;3.07;;;16.80;99.90;;;;;;5136271;27;20437;-56
2023/07/21 06:19:39;;;;;;;4.07;2.70;;;17.00;99.90;;;;;;5136570;27;20446;-55
2023/07/21 06:22:07;;;;;;;8.00;3.27;;;17.00;99.90;;;;;;5136844;27;20442;-57
2023/07/21 06:24:34;;;;;;;3.27;3.00;;;17.10;99.90;;;;;;5136304;27;20808;-55
2023/07/21 06:27:00;;;;;;;5.50;2.70;;;17.10;99.90;;;;;;5136508;27;20474;-58
2023/07/21 06:29:29;;;;;;;4.63;2.70;;;17.00;99.90;;;;;;5136465;27;20853;-57
2023/07/21 06:31:56;;;;;;;7.00;3.40;;;17.00;99.90;;;;;;5136320;27;20501;-57
2023/07/21 06:34:23;;;;;;;6.87;2.83;;;17.00;99.90;;;;;;5135736;27;20810;-56
2023/07/21 06:36:50;;;;;;;3.50;2.70;;;17.10;99.90;;;;;;5137183;27;20471;-57
2023/07/21 06:39:17;;;;;;;3.73;2.60;;;17.20;99.90;;;;;;5141880;27;20485;-56
2023/07/21 06:41:45;;;;;;;3.87;3.47;;;17.30;99.90;;;;;;5139515;27;20438;-56
2023/07/21 06:44:11;;;;;;;4.33;2.50;;;17.40;99.90;;;;;;5140762;27;20447;-56
2023/07/21 06:46:42;;;;;;;4.90;2.90;;;17.60;99.90;;;;;;5139676;27;20487;-56
2023/07/21 06:49:08;;;;;;;4.30;2.50;;;17.80;99.90;;;;;;5136439;27;20539;-54
2023/07/21 06:51:35;;;;;;;3.63;2.93;;;17.90;99.90;;;;;;5138194;27;20482;-56
2023/07/21 06:54:03;;;;;;;5.03;3.03;;;18.10;99.90;;;;;;5139893;27;20450;-56
2023/07/21 06:56:30;;;;;;;6.30;3.30;;;18.20;99.90;;;;;;5137597;27;20469;-57
2023/07/21 06:58:57;;;;;;;3.97;3.27;;;18.30;99.90;;;;;;5138010;27;20447;-58
2023/07/21 07:01:24;;;;;;;4.70;2.80;;;18.40;99.90;;;;;;5138232;27;20529;-56
2023/07/21 07:03:52;;;;;;;3.80;2.93;;;18.50;99.70;;;;;;5138126;27;20443;-57
2023/07/21 07:06:19;;;;;;;3.80;3.27;;;18.70;99.30;;;;;;5135937;27;20460;-56
2023/07/21 07:08:46;;;;;;;3.10;2.57;;;18.80;98.50;;;;;;5137082;27;20949;-57
2023/07/21 07:11:13;;;;;;;4.43;2.40;;;19.00;97.40;;;;;;5138386;27;20484;-57
2023/07/21 07:13:40;;;;;;;5.43;3.53;;;19.20;96.60;;;;;;5138007;27;20527;-56
2023/07/21 07:16:07;;;;;;;2.63;2.37;;;19.40;95.60;;;;;;5136659;27;20467;-56
2023/07/21 07:18:33;;;;;;;2.83;2.50;;;19.40;94.60;;;;;;5135121;27;20466;-57
2023/07/21 07:21:03;;;;;;;7.10;2.70;;;19.40;94.00;;;;;;5135815;27;20510;-57
2023/07/21 07:23:30;;;;;;;6.30;2.40;;;19.30;93.60;;;;;;5135491;27;20449;-57
2023/07/21 07:25:57;;;;;;;4.30;2.30;;;19.40;93.30;;;;;;5135544;27;20461;-57
2023/07/21 07:28:25;;;;;;;4.07;2.60;;;19.40;92.70;;;;;;5134948;27;20441;-57
2023/07/21 07:30:52;;;;;;;7.53;2.90;;;19.40;91.80;;;;;;5134677;27;20480;-56
2023/07/21 07:33:19;;;;;;;2.47;2.27;;;19.30;91.70;;;;;;5134827;27;20813;-56
2023/07/21 07:35:49;;;;;;;3.03;2.40;;;19.50;91.50;;;;;;5134735;27;20467;-57
2023/07/21 07:38:21;;;;;;;3.03;2.10;;;19.70;90.60;;;;;;5134819;27;20445;-59
2023/07/21 07:40:48;;;;;;;2.53;1.93;;;19.90;89.40;;;;;;5135902;27;20490;-59
2023/07/21 07:43:15;;;;;;;3.23;2.20;;;19.90;87.10;;;;;;5145034;27;20441;-58
2023/07/21 07:45:43;;;;;;;4.63;2.97;;;19.90;85.80;;;;;;5165052;22;20454;-56
2023/07/21 07:48:10;;;;;;;2.67;2.47;;;20.00;84.70;;;;;;5054904;28;20513;-60
2023/07/21 07:50:40;;;;;;;3.13;1.93;;;20.00;83.40;;;;;;5054565;28;20449;-57
2023/07/21 07:53:08;;;;;;;2.60;2.00;;;20.10;82.50;;;;;;5053753;28;20440;-58
2023/07/21 07:55:39;;;;;;;2.77;2.17;;;20.10;81.70;;;;;;5053825;28;20467;-58
2023/07/21 07:58:06;;;;;;;4.40;2.40;;;20.40;80.70;;;;;;5054890;28;20417;-58
2023/07/21 08:00:35;;;;;;;3.67;2.17;;;20.50;78.70;;;;;;5053753;28;20440;-57
2023/07/21 08:03:02;;;;;;;6.23;2.70;;;20.50;77.50;;;;;;5053416;28;20942;-58
2023/07/21 08:05:29;;;;;;;5.10;2.63;;;20.50;76.60;;;;;;5053822;28;20536;-58
2023/07/21 08:07:58;;;;;;;3.43;2.10;;;20.60;76.10;;;;;;5052956;28;20467;-59
2023/07/21 08:10:27;;;;;;;2.50;2.30;;;20.60;74.60;;;;;;5053112;28;20455;-58
2023/07/21 08:12:55;;;;;;;6.60;2.50;;;20.70;74.00;;;;;;5052479;28;20516;-58
2023/07/21 08:15:22;;;;;;;3.00;2.40;;;20.70;72.50;;;;;;5052784;28;20460;-56
2023/07/21 08:17:49;;;;;;;3.83;2.73;;;20.80;71.60;;;;;;5052859;28;20449;-58
2023/07/21 08:20:16;;;;;;;3.03;2.83;;;20.80;70.90;;;;;;5052924;28;21037;-59
2023/07/21 08:22:43;;;;;;;4.63;2.90;;;20.80;69.80;;;;;;5054018;28;20467;-59
2023/07/21 08:25:10;;;;;;;2.20;2.00;;;20.90;69.10;;;;;;5053484;28;20449;-57
2023/07/21 08:27:37;;;;;;;2.57;2.17;;;21.00;68.20;;;;;;5053320;28;20465;-59
2023/07/21 08:30:08;;;;;;;4.10;2.27;;;21.00;67.10;;;;;;5052677;28;20451;-59
2023/07/21 08:32:35;;;;;;;2.80;2.50;;;21.00;66.50;;;;;;5053121;28;20500;-60
2023/07/21 08:35:02;;;;;;;3.63;2.40;;;21.00;66.40;;;;;;5052999;28;20451;-57
2023/07/21 08:37:29;;;;;;;2.53;2.33;;;21.20;65.80;;;;;;5053679;28;20873;-57
2023/07/21 08:39:55;;;;;;;3.43;2.77;;;21.40;64.90;;;;;;5053852;28;20445;-57
2023/07/21 08:42:24;;;;;;;5.20;2.67;;;21.50;64.50;;;;;;5053350;28;20444;-58
2023/07/21 08:44:53;;;;;;;2.40;2.07;;;21.60;63.60;;;;;;5053314;28;20965;-58
2023/07/21 08:47:22;;;;;;;2.70;2.00;;;21.90;63.00;;;;;;5052977;28;20476;-57
2023/07/21 08:49:49;;;;;;;2.30;1.90;;;22.10;62.00;;;;;;5053560;28;20464;-57
2023/07/21 08:52:16;;;;;;;3.07;2.77;;;22.40;61.00;;;;;;5053250;28;20512;-58
2023/07/21 08:54:44;;;;;;;2.40;2.20;;;22.50;60.00;;;;;;5052840;28;20531;-57
2023/07/21 08:57:12;;;;;;;2.83;2.43;;;22.50;59.20;;;;;;5054249;28;20969;-59
2023/07/21 08:59:39;;;;;;;2.33;1.90;;;22.70;58.90;;;;;;5056929;28;20432;-57
2023/07/21 09:02:06;;;;;;;2.17;1.97;;;22.80;58.10;;;;;;5057264;28;20543;-58
2023/07/21 09:04:34;;;;;;;3.77;1.80;;;23.00;57.20;;;;;;5057185;28;20876;-58
2023/07/21 09:07:02;;;;;;;3.30;2.13;;;23.10;56.30;;;;;;5056768;28;20472;-57
2023/07/21 09:09:31;;;;;;;7.77;2.20;;;23.20;55.40;;;;;;5056524;28;20444;-57
2023/07/21 09:12:01;;;;;;;2.00;1.80;;;23.20;55.00;;;;;;5057126;28;20508;-58
2023/07/21 09:14:36;;;;;;;2.70;2.23;;;23.30;54.60;;;;;;5057108;28;20439;-57
2023/07/21 09:17:05;;;;;;;1.83;1.73;;;23.20;54.30;;;;;;5057372;28;20499;-59
2023/07/21 09:19:37;;;;;;;2.00;1.80;;;23.40;54.30;;;;;;5056850;28;20448;-57
2023/07/21 09:22:04;;;;;;;2.53;2.13;;;23.40;53.90;;;;;;5056510;28;20783;-57
2023/07/21 09:24:31;;;;;;;4.33;2.40;;;23.30;53.90;;;;;;5057038;28;20449;-58
2023/07/21 09:27:11;;;;;;;2.10;1.80;;;23.10;53.60;;;;;;5056302;28;20539;-57
2023/07/21 09:29:38;;;;;;;3.67;2.13;;;22.80;53.70;;;;;;5056907;28;20437;-58
2023/07/21 09:32:12;;;;;;;2.40;2.20;;;22.60;54.10;;;;;;5056784;28;20571;-59
2023/07/21 09:34:55;;;;;;;3.30;2.33;;;22.60;54.40;;;;;;5056009;28;20482;-58
2023/07/21 09:37:22;;;;;;;2.93;2.60;;;22.50;54.50;;;;;;5056198;28;20464;-58
2023/07/21 09:39:53;;;;;;;3.20;2.20;;;22.50;54.60;;;;;;5056129;28;20440;-57
2023/07/21 09:42:23;;;;;;;2.60;2.40;;;22.70;54.60;;;;;;5056793;28;20421;-57
2023/07/21 09:44:51;;;;;;;2.13;1.80;;;23.00;54.10;;;;;;5056233;28;20437;-58
2023/07/21 09:47:18;;;;;;;3.03;2.73;;;23.20;54.00;;;;;;5055383;28;20477;-57
2023/07/21 09:49:45;;;;;;;2.97;2.67;;;23.20;53.90;;;;;;5055323;28;20785;-58
2023/07/21 09:52:16;;;;;;;3.60;3.30;;;23.10;53.60;;;;;;5055421;28;20571;-57
2023/07/21 09:54:45;;;;;;;3.43;2.47;;;23.10;53.60;;;;;;5055492;28;20445;-57
2023/07/21 09:57:14;;;;;;;3.90;2.40;;;23.20;53.70;;;;;;5055576;28;20491;-59
2023/07/21 09:59:45;;;;;;;3.00;2.27;;;23.20;53.30;;;;;;5055127;28;20451;-57
2023/07/21 10:02:13;;;;;;;3.67;3.00;;;23.10;53.40;;;;;;5055267;28;20486;-59
2023/07/21 10:04:40;;;;;;;2.70;2.50;;;23.10;53.60;;;;;;5055428;28;20451;-57
2023/07/21 10:07:09;;;;;;;3.10;2.80;;;23.10;53.60;;;;;;5055376;28;20810;-59
2023/07/21 10:09:37;;;;;;;5.00;2.47;;;23.00;53.40;;;;;;5055071;28;20497;-58
2023/07/21 10:12:10;;;;;;;2.70;2.50;;;22.80;53.20;;;;;;5055007;28;20571;-58
2023/07/21 10:14:38;;;;;;;3.70;2.40;;;22.70;53.30;;;;;;5054643;28;20487;-57
2023/07/21 10:17:06;;;;;;;2.63;2.43;;;22.70;53.10;;;;;;5054404;28;20974;-59
2023/07/21 10:19:40;;;;;;;3.63;2.40;;;22.80;52.70;;;;;;5055213;28;20483;-58
2023/07/21 10:22:11;;;;;;;5.87;2.60;;;23.00;52.40;;;;;;5055092;28;20479;-58
2023/07/21 10:24:45;;;;;;;2.67;2.47;;;23.20;52.20;;;;;;5056145;28;20436;-58
2023/07/21 10:27:21;;;;;;;2.77;2.57;;;23.30;51.80;;;;;;5054778;28;20464;-58
2023/07/21 10:29:51;;;;;;;3.47;2.43;;;23.30;51.70;;;;;;5054223;28;20498;-57
2023/07/21 10:32:20;;;;;;;5.13;2.33;;;23.50;51.70;;;;;;5053916;28;21004;-58
2023/07/21 10:34:48;;;;;;;3.60;3.30;;;23.50;51.50;;;;;;5054368;28;20452;-59
2023/07/21 10:37:15;;;;;;;3.43;3.07;;;23.40;51.30;;;;;;5054512;28;20550;-60
2023/07/21 10:39:53;;;;;;;2.97;2.70;;;23.20;51.70;;;;;;5055082;28;20436;-59
2023/07/21 10:42:20;;;;;;;4.07;2.87;;;23.10;52.10;;;;;;5054237;28;20454;-58
2023/07/21 10:44:48;;;;;;;3.20;2.90;;;23.00;52.20;;;;;;5054411;28;20452;-58
2023/07/21 10:47:16;;;;;;;3.03;2.80;;;22.90;52.30;;;;;;5053951;28;20472;-59
2023/07/21 10:49:43;;;;;;;3.97;2.87;;;22.80;52.60;;;;;;5054270;28;20444;-58
2023/07/21 10:52:10;;;;;;;4.87;2.43;;;22.60;52.50;;;;;;5054092;28;20479;-58
2023/07/21 10:54:38;;;;;;;2.70;2.50;;;22.50;52.70;;;;;;5054700;28;20470;-59
2023/07/21 10:57:07;;;;;;;2.87;2.57;;;22.40;52.80;;;;;;5054593;28;20465;-58
2023/07/21 10:59:35;;;;;;;3.23;2.30;;;22.40;52.70;;;;;;5054255;28;20843;-58
2023/07/21 11:02:03;;;;;;;4.30;2.87;;;22.40;52.60;;;;;;5054182;28;20463;-60
2023/07/21 11:04:31;;;;;;;3.20;2.63;;;22.40;52.50;;;;;;5054359;28;20448;-59
2023/07/21 11:06:59;;;;;;;4.10;2.40;;;22.30;52.60;;;;;;5053751;28;20511;-59
2023/07/21 11:09:28;;;;;;;2.93;2.73;;;22.20;52.50;;;;;;5055026;28;20814;-58
2023/07/21 11:11:57;;;;;;;3.17;2.43;;;22.20;52.70;;;;;;5055433;28;20452;-58
2023/07/21 11:14:26;;;;;;;3.03;2.20;;;22.10;52.70;;;;;;5055452;28;20809;-60
2023/07/21 11:16:55;;;;;;;4.20;2.00;;;22.00;52.70;;;;;;5054622;28;20471;-60
2023/07/21 11:19:24;;;;;;;2.23;2.03;;;21.90;52.80;;;;;;5054261;28;20865;-59
2023/07/21 11:21:51;;;;;;;3.17;2.40;;;21.80;53.60;;;;;;5054682;28;20942;-58
2023/07/21 11:24:18;;;;;;;2.83;2.63;;;21.60;54.50;;;;;;5053797;28;20453;-60
2023/07/21 11:26:47;;;;;;;2.80;2.40;;;21.40;55.40;;;;;;5053822;28;20555;-60
2023/07/21 11:29:15;;;;;;;3.60;2.80;;;21.10;57.10;;;;;;5054571;28;20841;-59
2023/07/21 11:31:43;;;;;;;2.30;2.10;;;20.60;58.70;;;;;;5053699;28;20441;-59
2023/07/21 11:34:20;;;;;;;4.87;2.70;;;20.20;60.80;;;;;;5053670;28;20492;-58
2023/07/21 11:36:48;;;;;;;4.00;3.10;;;20.10;61.60;;;;;;5053521;28;20464;-57
2023/07/21 11:39:19;;;;;;;2.33;2.13;;;20.10;62.00;;;;;;5053284;28;20882;-58
2023/07/21 11:41:53;;;;;;;2.87;2.53;;;20.30;62.50;;;;;;5053529;28;20619;-58
2023/07/21 11:44:22;;;;;;;2.90;2.60;;;20.50;62.30;;;;;;5053431;28;20487;-59
2023/07/21 11:47:04;;;;;;;2.40;2.20;;;20.70;62.30;;;;;;5053249;28;20993;-58
2023/07/21 11:49:33;;;;;;;2.37;2.17;;;20.90;61.90;;;;;;5054380;28;20794;-60
2023/07/21 11:52:02;;;;;;;2.43;2.13;;;21.20;61.40;;;;;;5053540;28;20480;-59
2023/07/21 11:54:36;;;;;;;2.47;2.17;;;21.50;60.50;;;;;;5053406;28;20927;-59
2023/07/21 11:57:04;;;;;;;5.17;2.67;;;21.60;59.10;;;;;;5053498;28;20472;-58
2023/07/21 11:59:31;;;;;;;3.30;2.63;;;21.60;58.10;;;;;;5053416;28;20452;-58
2023/07/21 12:02:00;;;;;;;3.33;2.70;;;21.60;57.90;;;;;;5053480;28;20531;-58
2023/07/21 12:04:27;;;;;;;3.33;2.17;;;21.50;57.70;;;;;;5053451;28;20448;-58
2023/07/21 12:06:54;;;;;;;3.00;1.70;;;21.50;57.70;;;;;;5053532;28;20505;-60
2023/07/21 12:09:20;;;;;;;3.80;2.53;;;21.50;57.80;;;;;;5052918;28;20452;-58
2023/07/21 12:11:47;;;;;;;2.83;1.87;;;21.50;57.00;;;;;;5053134;28;21042;-60
2023/07/21 12:14:14;;;;;;;2.00;1.50;;;21.40;56.30;;;;;;5052971;28;20476;-59
2023/07/21 12:16:41;;;;;;;2.17;1.97;;;21.30;55.50;;;;;;5053326;28;20487;-59
2023/07/21 12:19:09;;;;;;;1.80;1.40;;;21.30;55.50;;;;;;5053232;28;20460;-58
2023/07/21 12:21:36;;;;;;;2.30;2.10;;;21.20;54.00;;;;;;5053207;28;20452;-57
2023/07/21 12:24:04;;;;;;;1.70;1.50;;;21.20;53.50;;;;;;5053156;28;20502;-57
2023/07/21 12:26:30;;;;;;;3.20;1.80;;;21.10;53.30;;;;;;5052744;28;20539;-59
2023/07/21 12:28:57;;;;;;;2.10;1.90;;;21.10;53.30;;;;;;5052991;28;20445;-59
2023/07/21 12:31:24;;;;;;;4.37;2.47;;;21.00;53.60;;;;;;5052571;28;20448;-60
2023/07/21 12:33:51;;;;;;;3.63;2.60;;;21.00;54.70;;;;;;5057048;28;20491;-59
2023/07/21 12:36:20;;;;;;;2.30;2.10;;;21.00;54.60;;;;;;5057028;28;20478;-60
2023/07/21 12:38:47;;;;;;;2.80;2.60;;;21.10;55.40;;;;;;5057322;28;20445;-58
2023/07/21 12:41:14;;;;;;;3.13;2.83;;;21.00;56.20;;;;;;5057191;28;20448;-59
2023/07/21 12:43:41;;;;;;;2.57;2.30;;;20.90;57.40;;;;;;5056912;28;20445;-59
2023/07/21 12:46:12;;;;;;;2.90;2.70;;;20.80;58.50;;;;;;5056752;28;20562;-58
2023/07/21 12:48:38;;;;;;;3.43;3.13;;;20.80;59.30;;;;;;5056276;28;20443;-59
2023/07/21 12:51:05;;;;;;;4.80;3.43;;;20.70;59.70;;;;;;5056686;28;20455;-58